sensor_id;sensor_type;location;lat;lon;timestamp;P1;durP1;ratioP1;P2;durP2;ratioP2
13061;SDS011;6597;52.218;9.882;2023-08-06T00:01:07;8.67;;;3.20;;
13061;SDS011;6597;52.218;9.882;2023-08-06T00:03:34;7.37;;;3.60;;
13061;SDS011;6597;52.218;9.882;2023-08-06T00:06:01;6.53;;;3.40;;
13061;SDS011;6597;52.218;9.882;2023-08-06T00:08:27;6.80;;;3.33;;
13061;SDS011;6597;52.218;9.882;2023-08-06T00:10:55;5.50;;;3.07;;
13061;SDS011;6597;52.218;9.882;2023-08-06T00:13:22;8.30;;;3.77;;
13061;SDS011;6597;52.218;9.882;2023-08-06T00:15:48;9.50;;;3.80;;
13061;SDS011;6597;52.218;9.882;2023-08-06T00:18:15;7.97;;;3.80;;
13061;SDS011;6597;52.218;9.882;2023-08-06T00:20:41;8.33;;;3.60;;
13061;SDS011;6597;52.218;9.882;2023-08-06T00:23:08;10.00;;;3.87;;
13061;SDS011;6597;52.218;9.882;2023-08-06T00:25:34;5.83;;;2.90;;
13061;SDS011;6597;52.218;9.882;2023-08-06T00:28:02;5.37;;;3.00;;
13061;SDS011;6597;52.218;9.882;2023-08-06T00:30:29;6.70;;;3.50;;
13061;SDS011;6597;52.218;9.882;2023-08-06T00:32:56;11.90;;;3.37;;
13061;SDS011;6597;52.218;9.882;2023-08-06T00:35:22;5.90;;;3.30;;
13061;SDS011;6597;52.218;9.882;2023-08-06T00:37:49;11.30;;;4.40;;
13061;SDS011;6597;52.218;9.882;2023-08-06T00:40:15;7.63;;;3.53;;
13061;SDS011;6597;52.218;9.882;2023-08-06T00:42:42;8.07;;;3.47;;
13061;SDS011;6597;52.218;9.882;2023-08-06T00:45:11;14.10;;;4.40;;
13061;SDS011;6597;52.218;9.882;2023-08-06T00:47:38;7.30;;;3.27;;
13061;SDS011;6597;52.218;9.882;2023-08-06T00:50:06;10.53;;;3.73;;
13061;SDS011;6597;52.218;9.882;2023-08-06T00:52:33;7.43;;;3.30;;
13061;SDS011;6597;52.218;9.882;2023-08-06T00:55:00;7.50;;;3.83;;
13061;SDS011;6597;52.218;9.882;2023-08-06T00:57:27;9.73;;;3.23;;
13061;SDS011;6597;52.218;9.882;2023-08-06T00:59:53;7.67;;;2.93;;
13061;SDS011;6597;52.218;9.882;2023-08-06T01:02:22;9.00;;;5.00;;
13061;SDS011;6597;52.218;9.882;2023-08-06T01:04:48;10.90;;;2.97;;
13061;SDS011;6597;52.218;9.882;2023-08-06T01:07:18;9.70;;;3.57;;
13061;SDS011;6597;52.218;9.882;2023-08-06T01:09:54;9.20;;;3.40;;
13061;SDS011;6597;52.218;9.882;2023-08-06T01:12:34;7.53;;;3.60;;
13061;SDS011;6597;52.218;9.882;2023-08-06T01:15:11;9.40;;;3.93;;
13061;SDS011;6597;52.218;9.882;2023-08-06T01:17:46;20.23;;;3.73;;
13061;SDS011;6597;52.218;9.882;2023-08-06T01:20:14;6.57;;;3.37;;
13061;SDS011;6597;52.218;9.882;2023-08-06T01:22:42;7.03;;;3.57;;
13061;SDS011;6597;52.218;9.882;2023-08-06T01:25:08;22.37;;;4.17;;
13061;SDS011;6597;52.218;9.882;2023-08-06T01:27:37;15.80;;;4.07;;
13061;SDS011;6597;52.218;9.882;2023-08-06T01:30:11;7.50;;;3.33;;
13061;SDS011;6597;52.218;9.882;2023-08-06T01:32:42;9.67;;;3.43;;
13061;SDS011;6597;52.218;9.882;2023-08-06T01:35:11;8.70;;;4.00;;
13061;SDS011;6597;52.218;9.882;2023-08-06T01:37:40;18.27;;;3.87;;
13061;SDS011;6597;52.218;9.882;2023-08-06T01:40:09;16.57;;;3.73;;
13061;SDS011;6597;52.218;9.882;2023-08-06T01:42:36;11.30;;;3.50;;
13061;SDS011;6597;52.218;9.882;2023-08-06T01:45:03;6.90;;;3.30;;
13061;SDS011;6597;52.218;9.882;2023-08-06T01:47:30;15.03;;;3.70;;
13061;SDS011;6597;52.218;9.882;2023-08-06T01:49:57;6.80;;;2.80;;
13061;SDS011;6597;52.218;9.882;2023-08-06T01:52:23;11.63;;;3.30;;
13061;SDS011;6597;52.218;9.882;2023-08-06T01:54:51;9.70;;;3.27;;
13061;SDS011;6597;52.218;9.882;2023-08-06T01:57:18;6.83;;;3.10;;
13061;SDS011;6597;52.218;9.882;2023-08-06T01:59:44;5.73;;;3.33;;
13061;SDS011;6597;52.218;9.882;2023-08-06T02:02:11;7.27;;;2.80;;
13061;SDS011;6597;52.218;9.882;2023-08-06T02:04:38;7.30;;;3.00;;
13061;SDS011;6597;52.218;9.882;2023-08-06T02:07:05;12.60;;;3.07;;
13061;SDS011;6597;52.218;9.882;2023-08-06T02:09:31;10.93;;;3.50;;
13061;SDS011;6597;52.218;9.882;2023-08-06T02:12:01;8.40;;;3.07;;
13061;SDS011;6597;52.218;9.882;2023-08-06T02:14:28;7.60;;;3.00;;
13061;SDS011;6597;52.218;9.882;2023-08-06T02:16:55;8.00;;;3.10;;
13061;SDS011;6597;52.218;9.882;2023-08-06T02:19:24;10.17;;;3.30;;
13061;SDS011;6597;52.218;9.882;2023-08-06T02:21:50;3.97;;;2.40;;
13061;SDS011;6597;52.218;9.882;2023-08-06T02:24:17;9.97;;;4.10;;
13061;SDS011;6597;52.218;9.882;2023-08-06T02:26:44;11.03;;;3.47;;
13061;SDS011;6597;52.218;9.882;2023-08-06T02:29:13;7.67;;;3.67;;
13061;SDS011;6597;52.218;9.882;2023-08-06T02:31:42;9.03;;;3.50;;
13061;SDS011;6597;52.218;9.882;2023-08-06T02:34:09;12.97;;;4.30;;
13061;SDS011;6597;52.218;9.882;2023-08-06T02:36:35;6.67;;;3.50;;
13061;SDS011;6597;52.218;9.882;2023-08-06T02:39:02;9.73;;;3.23;;
13061;SDS011;6597;52.218;9.882;2023-08-06T02:41:29;11.57;;;3.83;;
13061;SDS011;6597;52.218;9.882;2023-08-06T02:43:56;11.10;;;4.67;;
13061;SDS011;6597;52.218;9.882;2023-08-06T02:46:24;13.27;;;3.10;;
13061;SDS011;6597;52.218;9.882;2023-08-06T02:48:51;7.50;;;3.20;;
13061;SDS011;6597;52.218;9.882;2023-08-06T02:51:17;6.93;;;3.43;;
13061;SDS011;6597;52.218;9.882;2023-08-06T02:53:44;8.00;;;3.40;;
13061;SDS011;6597;52.218;9.882;2023-08-06T02:56:13;7.07;;;3.57;;
13061;SDS011;6597;52.218;9.882;2023-08-06T02:58:59;6.33;;;3.50;;
13061;SDS011;6597;52.218;9.882;2023-08-06T03:01:48;7.27;;;3.30;;
13061;SDS011;6597;52.218;9.882;2023-08-06T03:04:23;7.50;;;3.17;;
13061;SDS011;6597;52.218;9.882;2023-08-06T03:06:50;12.53;;;3.97;;
13061;SDS011;6597;52.218;9.882;2023-08-06T03:09:19;9.57;;;2.93;;
13061;SDS011;6597;52.218;9.882;2023-08-06T03:11:47;6.63;;;3.40;;
13061;SDS011;6597;52.218;9.882;2023-08-06T03:14:14;8.67;;;3.20;;
13061;SDS011;6597;52.218;9.882;2023-08-06T03:16:42;8.57;;;3.50;;
13061;SDS011;6597;52.218;9.882;2023-08-06T03:19:13;10.77;;;3.33;;
13061;SDS011;6597;52.218;9.882;2023-08-06T03:21:40;7.80;;;3.70;;
13061;SDS011;6597;52.218;9.882;2023-08-06T03:24:07;16.40;;;4.40;;
13061;SDS011;6597;52.218;9.882;2023-08-06T03:26:35;9.93;;;3.33;;
13061;SDS011;6597;52.218;9.882;2023-08-06T03:29:02;14.33;;;3.83;;
13061;SDS011;6597;52.218;9.882;2023-08-06T03:31:31;11.43;;;3.10;;
13061;SDS011;6597;52.218;9.882;2023-08-06T03:33:58;10.27;;;3.90;;
13061;SDS011;6597;52.218;9.882;2023-08-06T03:36:28;11.13;;;3.63;;
13061;SDS011;6597;52.218;9.882;2023-08-06T03:38:54;7.53;;;3.33;;
13061;SDS011;6597;52.218;9.882;2023-08-06T03:41:21;7.30;;;3.57;;
13061;SDS011;6597;52.218;9.882;2023-08-06T03:43:48;5.20;;;3.20;;
13061;SDS011;6597;52.218;9.882;2023-08-06T03:46:21;7.73;;;3.50;;
13061;SDS011;6597;52.218;9.882;2023-08-06T03:48:48;6.93;;;3.13;;
13061;SDS011;6597;52.218;9.882;2023-08-06T03:51:15;16.70;;;3.97;;
13061;SDS011;6597;52.218;9.882;2023-08-06T03:53:45;10.67;;;3.17;;
13061;SDS011;6597;52.218;9.882;2023-08-06T03:56:11;10.17;;;3.70;;
13061;SDS011;6597;52.218;9.882;2023-08-06T03:58:38;5.17;;;2.90;;
13061;SDS011;6597;52.218;9.882;2023-08-06T04:01:06;7.23;;;3.50;;
13061;SDS011;6597;52.218;9.882;2023-08-06T04:03:39;8.27;;;3.50;;
13061;SDS011;6597;52.218;9.882;2023-08-06T04:06:06;9.97;;;3.50;;
13061;SDS011;6597;52.218;9.882;2023-08-06T04:08:33;8.97;;;3.57;;
13061;SDS011;6597;52.218;9.882;2023-08-06T04:11:03;9.87;;;3.57;;
13061;SDS011;6597;52.218;9.882;2023-08-06T04:13:29;11.60;;;3.40;;
13061;SDS011;6597;52.218;9.882;2023-08-06T04:16:00;14.23;;;3.67;;
13061;SDS011;6597;52.218;9.882;2023-08-06T04:18:27;10.83;;;3.20;;
13061;SDS011;6597;52.218;9.882;2023-08-06T04:20:54;15.03;;;3.80;;
13061;SDS011;6597;52.218;9.882;2023-08-06T04:23:22;10.83;;;3.90;;
13061;SDS011;6597;52.218;9.882;2023-08-06T04:25:49;6.80;;;3.67;;
13061;SDS011;6597;52.218;9.882;2023-08-06T04:28:17;8.17;;;3.80;;
13061;SDS011;6597;52.218;9.882;2023-08-06T04:30:43;8.40;;;3.57;;
13061;SDS011;6597;52.218;9.882;2023-08-06T04:33:10;7.90;;;3.57;;
13061;SDS011;6597;52.218;9.882;2023-08-06T04:35:37;9.17;;;4.27;;
13061;SDS011;6597;52.218;9.882;2023-08-06T04:38:03;6.50;;;3.80;;
13061;SDS011;6597;52.218;9.882;2023-08-06T04:40:32;12.90;;;4.63;;
13061;SDS011;6597;52.218;9.882;2023-08-06T04:42:59;14.27;;;4.43;;
13061;SDS011;6597;52.218;9.882;2023-08-06T04:45:29;12.80;;;4.57;;
13061;SDS011;6597;52.218;9.882;2023-08-06T04:47:55;16.37;;;3.97;;
13061;SDS011;6597;52.218;9.882;2023-08-06T04:50:22;13.47;;;4.27;;
13061;SDS011;6597;52.218;9.882;2023-08-06T04:52:48;10.20;;;4.23;;
13061;SDS011;6597;52.218;9.882;2023-08-06T04:55:15;12.17;;;4.83;;
13061;SDS011;6597;52.218;9.882;2023-08-06T04:57:41;7.77;;;4.07;;
13061;SDS011;6597;52.218;9.882;2023-08-06T05:00:08;11.70;;;4.93;;
13061;SDS011;6597;52.218;9.882;2023-08-06T05:02:36;7.47;;;4.37;;
13061;SDS011;6597;52.218;9.882;2023-08-06T05:05:04;13.80;;;5.03;;
13061;SDS011;6597;52.218;9.882;2023-08-06T05:07:31;5.57;;;3.83;;
13061;SDS011;6597;52.218;9.882;2023-08-06T05:09:57;9.87;;;3.97;;
13061;SDS011;6597;52.218;9.882;2023-08-06T05:12:24;9.97;;;4.73;;
13061;SDS011;6597;52.218;9.882;2023-08-06T05:14:50;10.07;;;4.47;;
13061;SDS011;6597;52.218;9.882;2023-08-06T05:17:17;9.23;;;4.50;;
13061;SDS011;6597;52.218;9.882;2023-08-06T05:19:45;8.43;;;4.60;;
13061;SDS011;6597;52.218;9.882;2023-08-06T05:22:11;9.90;;;4.77;;
13061;SDS011;6597;52.218;9.882;2023-08-06T05:24:37;6.03;;;4.17;;
13061;SDS011;6597;52.218;9.882;2023-08-06T05:27:04;8.80;;;4.63;;
13061;SDS011;6597;52.218;9.882;2023-08-06T05:29:31;8.80;;;4.23;;
13061;SDS011;6597;52.218;9.882;2023-08-06T05:31:58;9.97;;;4.37;;
13061;SDS011;6597;52.218;9.882;2023-08-06T05:34:24;7.63;;;3.93;;
13061;SDS011;6597;52.218;9.882;2023-08-06T05:36:52;11.27;;;4.53;;
13061;SDS011;6597;52.218;9.882;2023-08-06T05:39:19;11.33;;;4.27;;
13061;SDS011;6597;52.218;9.882;2023-08-06T05:41:45;10.30;;;4.70;;
13061;SDS011;6597;52.218;9.882;2023-08-06T05:44:12;11.20;;;4.63;;
13061;SDS011;6597;52.218;9.882;2023-08-06T05:46:38;8.83;;;4.20;;
13061;SDS011;6597;52.218;9.882;2023-08-06T05:49:05;7.23;;;3.87;;
13061;SDS011;6597;52.218;9.882;2023-08-06T05:51:31;11.77;;;5.20;;
13061;SDS011;6597;52.218;9.882;2023-08-06T05:53:59;9.70;;;4.73;;
13061;SDS011;6597;52.218;9.882;2023-08-06T05:56:26;9.17;;;4.17;;
13061;SDS011;6597;52.218;9.882;2023-08-06T05:58:52;12.23;;;4.40;;
13061;SDS011;6597;52.218;9.882;2023-08-06T06:01:19;8.17;;;4.00;;
13061;SDS011;6597;52.218;9.882;2023-08-06T06:03:45;12.33;;;3.57;;
13061;SDS011;6597;52.218;9.882;2023-08-06T06:06:12;12.20;;;4.07;;
13061;SDS011;6597;52.218;9.882;2023-08-06T06:08:38;9.23;;;4.17;;
13061;SDS011;6597;52.218;9.882;2023-08-06T06:11:06;8.80;;;3.77;;
13061;SDS011;6597;52.218;9.882;2023-08-06T06:13:33;5.30;;;3.90;;
13061;SDS011;6597;52.218;9.882;2023-08-06T06:15:59;9.07;;;3.70;;
13061;SDS011;6597;52.218;9.882;2023-08-06T06:18:26;9.20;;;4.47;;
13061;SDS011;6597;52.218;9.882;2023-08-06T06:20:52;7.73;;;3.63;;
13061;SDS011;6597;52.218;9.882;2023-08-06T06:23:19;8.20;;;4.17;;
13061;SDS011;6597;52.218;9.882;2023-08-06T06:25:47;12.00;;;3.67;;
13061;SDS011;6597;52.218;9.882;2023-08-06T06:28:18;5.83;;;3.53;;
13061;SDS011;6597;52.218;9.882;2023-08-06T06:30:44;8.87;;;4.37;;
13061;SDS011;6597;52.218;9.882;2023-08-06T06:33:11;7.50;;;4.03;;
13061;SDS011;6597;52.218;9.882;2023-08-06T06:35:37;8.00;;;4.10;;
13061;SDS011;6597;52.218;9.882;2023-08-06T06:38:04;10.03;;;4.07;;
13061;SDS011;6597;52.218;9.882;2023-08-06T06:40:30;6.47;;;4.17;;
13061;SDS011;6597;52.218;9.882;2023-08-06T06:42:58;8.73;;;4.47;;
13061;SDS011;6597;52.218;9.882;2023-08-06T06:45:26;10.47;;;4.00;;
13061;SDS011;6597;52.218;9.882;2023-08-06T06:47:52;7.37;;;3.73;;
13061;SDS011;6597;52.218;9.882;2023-08-06T06:50:19;7.73;;;4.20;;
13061;SDS011;6597;52.218;9.882;2023-08-06T06:52:45;5.75;;;3.92;;
13061;SDS011;6597;52.218;9.882;2023-08-06T06:55:12;13.23;;;4.47;;
13061;SDS011;6597;52.218;9.882;2023-08-06T06:57:38;6.40;;;3.63;;
13061;SDS011;6597;52.218;9.882;2023-08-06T07:00:05;6.45;;;3.30;;
13061;SDS011;6597;52.218;9.882;2023-08-06T07:02:34;8.18;;;3.88;;
13061;SDS011;6597;52.218;9.882;2023-08-06T07:05:01;7.18;;;3.25;;
13061;SDS011;6597;52.218;9.882;2023-08-06T07:07:27;7.28;;;3.65;;
13061;SDS011;6597;52.218;9.882;2023-08-06T07:09:54;6.13;;;3.47;;
13061;SDS011;6597;52.218;9.882;2023-08-06T07:12:20;5.00;;;3.20;;
13061;SDS011;6597;52.218;9.882;2023-08-06T07:14:49;5.72;;;3.20;;
13061;SDS011;6597;52.218;9.882;2023-08-06T07:17:15;3.40;;;2.35;;
13061;SDS011;6597;52.218;9.882;2023-08-06T07:19:43;8.00;;;3.13;;
13061;SDS011;6597;52.218;9.882;2023-08-06T07:22:09;8.05;;;3.28;;
13061;SDS011;6597;52.218;9.882;2023-08-06T07:24:36;8.00;;;2.80;;
13061;SDS011;6597;52.218;9.882;2023-08-06T07:27:03;5.97;;;2.60;;
13061;SDS011;6597;52.218;9.882;2023-08-06T07:29:30;8.13;;;2.67;;
13061;SDS011;6597;52.218;9.882;2023-08-06T07:31:56;16.45;;;2.90;;
13061;SDS011;6597;52.218;9.882;2023-08-06T07:34:23;22.13;;;3.17;;
13061;SDS011;6597;52.218;9.882;2023-08-06T07:36:50;9.93;;;2.83;;
13061;SDS011;6597;52.218;9.882;2023-08-06T07:39:17;15.02;;;3.33;;
13061;SDS011;6597;52.218;9.882;2023-08-06T07:41:44;13.65;;;2.85;;
13061;SDS011;6597;52.218;9.882;2023-08-06T07:44:11;39.97;;;5.07;;
13061;SDS011;6597;52.218;9.882;2023-08-06T07:46:37;13.75;;;2.67;;
13061;SDS011;6597;52.218;9.882;2023-08-06T07:49:04;25.83;;;3.47;;
13061;SDS011;6597;52.218;9.882;2023-08-06T07:51:31;19.25;;;3.17;;
13061;SDS011;6597;52.218;9.882;2023-08-06T07:53:59;21.88;;;3.58;;
13061;SDS011;6597;52.218;9.882;2023-08-06T07:56:25;17.10;;;2.85;;
13061;SDS011;6597;52.218;9.882;2023-08-06T07:58:52;12.80;;;2.47;;
13061;SDS011;6597;52.218;9.882;2023-08-06T08:01:18;15.05;;;2.78;;
13061;SDS011;6597;52.218;9.882;2023-08-06T08:03:45;12.07;;;2.38;;
13061;SDS011;6597;52.218;9.882;2023-08-06T08:06:12;3.08;;;1.55;;
13061;SDS011;6597;52.218;9.882;2023-08-06T08:08:38;11.13;;;2.30;;
13061;SDS011;6597;52.218;9.882;2023-08-06T08:11:06;12.73;;;3.17;;
13061;SDS011;6597;52.218;9.882;2023-08-06T08:13:33;7.72;;;2.45;;
13061;SDS011;6597;52.218;9.882;2023-08-06T08:15:59;13.85;;;3.92;;
13061;SDS011;6597;52.218;9.882;2023-08-06T08:18:27;11.85;;;2.65;;
13061;SDS011;6597;52.218;9.882;2023-08-06T08:20:53;7.45;;;2.15;;
13061;SDS011;6597;52.218;9.882;2023-08-06T08:23:20;8.98;;;2.58;;
13061;SDS011;6597;52.218;9.882;2023-08-06T08:25:46;8.10;;;2.30;;
13061;SDS011;6597;52.218;9.882;2023-08-06T08:28:14;8.98;;;2.42;;
13061;SDS011;6597;52.218;9.882;2023-08-06T08:30:41;10.52;;;3.40;;
13061;SDS011;6597;52.218;9.882;2023-08-06T08:33:08;8.27;;;2.63;;
13061;SDS011;6597;52.218;9.882;2023-08-06T08:35:34;9.32;;;2.72;;
13061;SDS011;6597;52.218;9.882;2023-08-06T08:38:02;10.65;;;2.50;;
13061;SDS011;6597;52.218;9.882;2023-08-06T08:40:29;12.73;;;3.42;;
13061;SDS011;6597;52.218;9.882;2023-08-06T08:42:58;7.88;;;2.50;;
13061;SDS011;6597;52.218;9.882;2023-08-06T08:45:28;9.13;;;2.45;;
13061;SDS011;6597;52.218;9.882;2023-08-06T08:47:55;12.38;;;2.35;;
13061;SDS011;6597;52.218;9.882;2023-08-06T08:50:22;9.35;;;2.63;;
13061;SDS011;6597;52.218;9.882;2023-08-06T08:52:48;12.13;;;2.58;;
13061;SDS011;6597;52.218;9.882;2023-08-06T08:55:16;13.02;;;2.55;;
13061;SDS011;6597;52.218;9.882;2023-08-06T08:57:46;10.27;;;2.25;;
13061;SDS011;6597;52.218;9.882;2023-08-06T09:00:13;16.98;;;3.00;;
13061;SDS011;6597;52.218;9.882;2023-08-06T09:02:41;16.42;;;2.95;;
13061;SDS011;6597;52.218;9.882;2023-08-06T09:05:09;15.32;;;2.95;;
13061;SDS011;6597;52.218;9.882;2023-08-06T09:07:38;16.42;;;3.20;;
13061;SDS011;6597;52.218;9.882;2023-08-06T09:10:10;23.42;;;3.35;;
13061;SDS011;6597;52.218;9.882;2023-08-06T09:12:38;22.08;;;3.17;;
13061;SDS011;6597;52.218;9.882;2023-08-06T09:15:05;17.23;;;3.08;;
13061;SDS011;6597;52.218;9.882;2023-08-06T09:17:33;21.20;;;3.33;;
13061;SDS011;6597;52.218;9.882;2023-08-06T09:20:04;20.27;;;3.10;;
13061;SDS011;6597;52.218;9.882;2023-08-06T09:22:35;16.83;;;3.20;;
13061;SDS011;6597;52.218;9.882;2023-08-06T09:25:02;20.25;;;3.40;;
13061;SDS011;6597;52.218;9.882;2023-08-06T09:27:29;23.27;;;3.97;;
13061;SDS011;6597;52.218;9.882;2023-08-06T09:29:56;19.17;;;3.13;;
13061;SDS011;6597;52.218;9.882;2023-08-06T09:32:22;20.50;;;3.58;;
13061;SDS011;6597;52.218;9.882;2023-08-06T09:34:54;16.95;;;3.17;;
13061;SDS011;6597;52.218;9.882;2023-08-06T09:37:23;21.25;;;3.63;;
13061;SDS011;6597;52.218;9.882;2023-08-06T09:39:51;15.75;;;3.17;;
13061;SDS011;6597;52.218;9.882;2023-08-06T09:42:19;19.88;;;3.22;;
13061;SDS011;6597;52.218;9.882;2023-08-06T09:44:45;22.48;;;3.05;;
13061;SDS011;6597;52.218;9.882;2023-08-06T09:47:12;18.63;;;3.00;;
13061;SDS011;6597;52.218;9.882;2023-08-06T09:49:42;18.60;;;3.50;;
13061;SDS011;6597;52.218;9.882;2023-08-06T09:52:11;17.38;;;3.03;;
13061;SDS011;6597;52.218;9.882;2023-08-06T09:54:40;13.88;;;2.90;;
13061;SDS011;6597;52.218;9.882;2023-08-06T09:57:08;18.38;;;3.38;;
13061;SDS011;6597;52.218;9.882;2023-08-06T09:59:35;23.48;;;3.55;;
13061;SDS011;6597;52.218;9.882;2023-08-06T10:02:03;16.25;;;3.05;;
13061;SDS011;6597;52.218;9.882;2023-08-06T10:04:38;17.33;;;2.83;;
13061;SDS011;6597;52.218;9.882;2023-08-06T10:07:05;16.92;;;2.67;;
13061;SDS011;6597;52.218;9.882;2023-08-06T10:09:32;16.98;;;2.60;;
13061;SDS011;6597;52.218;9.882;2023-08-06T10:12:00;12.60;;;2.42;;
13061;SDS011;6597;52.218;9.882;2023-08-06T10:14:27;12.10;;;2.13;;
13061;SDS011;6597;52.218;9.882;2023-08-06T10:16:57;20.95;;;2.80;;
13061;SDS011;6597;52.218;9.882;2023-08-06T10:19:24;26.23;;;3.55;;
13061;SDS011;6597;52.218;9.882;2023-08-06T10:22:11;15.77;;;2.40;;
13061;SDS011;6597;52.218;9.882;2023-08-06T10:24:48;21.70;;;3.17;;
13061;SDS011;6597;52.218;9.882;2023-08-06T10:27:31;20.92;;;3.17;;
13061;SDS011;6597;52.218;9.882;2023-08-06T10:32:54;21.83;;;3.08;;
13061;SDS011;6597;52.218;9.882;2023-08-06T10:35:28;25.15;;;3.40;;
13061;SDS011;6597;52.218;9.882;2023-08-06T10:37:59;21.45;;;2.90;;
13061;SDS011;6597;52.218;9.882;2023-08-06T10:40:29;27.80;;;3.42;;
13061;SDS011;6597;52.218;9.882;2023-08-06T10:42:59;20.77;;;2.72;;
13061;SDS011;6597;52.218;9.882;2023-08-06T10:45:26;22.60;;;2.80;;
13061;SDS011;6597;52.218;9.882;2023-08-06T10:47:55;22.10;;;3.03;;
13061;SDS011;6597;52.218;9.882;2023-08-06T10:50:22;30.58;;;3.58;;
13061;SDS011;6597;52.218;9.882;2023-08-06T10:52:50;18.77;;;2.47;;
13061;SDS011;6597;52.218;9.882;2023-08-06T10:55:24;13.25;;;2.10;;
13061;SDS011;6597;52.218;9.882;2023-08-06T10:57:52;18.15;;;2.58;;
13061;SDS011;6597;52.218;9.882;2023-08-06T11:00:20;30.65;;;3.38;;
13061;SDS011;6597;52.218;9.882;2023-08-06T11:02:49;30.25;;;3.45;;
13061;SDS011;6597;52.218;9.882;2023-08-06T11:05:16;16.17;;;2.60;;
13061;SDS011;6597;52.218;9.882;2023-08-06T11:07:42;5.57;;;1.65;;
13061;SDS011;6597;52.218;9.882;2023-08-06T11:10:10;6.20;;;1.73;;
13061;SDS011;6597;52.218;9.882;2023-08-06T11:12:38;13.85;;;2.72;;
13061;SDS011;6597;52.218;9.882;2023-08-06T11:15:05;14.93;;;2.92;;
13061;SDS011;6597;52.218;9.882;2023-08-06T11:17:34;15.98;;;3.78;;
13061;SDS011;6597;52.218;9.882;2023-08-06T11:20:01;8.65;;;2.25;;
13061;SDS011;6597;52.218;9.882;2023-08-06T11:22:28;11.57;;;2.88;;
13061;SDS011;6597;52.218;9.882;2023-08-06T11:24:55;2.40;;;1.35;;
13061;SDS011;6597;52.218;9.882;2023-08-06T11:27:22;8.90;;;2.05;;
13061;SDS011;6597;52.218;9.882;2023-08-06T11:29:48;10.27;;;2.40;;
13061;SDS011;6597;52.218;9.882;2023-08-06T11:32:15;7.10;;;1.77;;
13061;SDS011;6597;52.218;9.882;2023-08-06T11:34:43;3.67;;;1.50;;
13061;SDS011;6597;52.218;9.882;2023-08-06T11:37:10;8.27;;;1.88;;
13061;SDS011;6597;52.218;9.882;2023-08-06T11:39:37;10.68;;;2.55;;
13061;SDS011;6597;52.218;9.882;2023-08-06T11:42:05;9.50;;;2.20;;
13061;SDS011;6597;52.218;9.882;2023-08-06T11:44:32;13.88;;;3.15;;
13061;SDS011;6597;52.218;9.882;2023-08-06T11:47:01;13.02;;;2.10;;
13061;SDS011;6597;52.218;9.882;2023-08-06T11:49:37;10.15;;;2.20;;
13061;SDS011;6597;52.218;9.882;2023-08-06T11:52:10;6.93;;;1.95;;
13061;SDS011;6597;52.218;9.882;2023-08-06T11:54:39;10.52;;;2.30;;
13061;SDS011;6597;52.218;9.882;2023-08-06T11:57:05;9.18;;;2.08;;
13061;SDS011;6597;52.218;9.882;2023-08-06T11:59:32;10.98;;;2.25;;
13061;SDS011;6597;52.218;9.882;2023-08-06T12:01:59;10.02;;;2.10;;
13061;SDS011;6597;52.218;9.882;2023-08-06T12:04:27;9.77;;;2.30;;
13061;SDS011;6597;52.218;9.882;2023-08-06T12:06:54;10.25;;;2.30;;
13061;SDS011;6597;52.218;9.882;2023-08-06T12:09:22;9.35;;;2.05;;
13061;SDS011;6597;52.218;9.882;2023-08-06T12:11:48;9.82;;;2.22;;
13061;SDS011;6597;52.218;9.882;2023-08-06T12:14:15;12.63;;;2.45;;
13061;SDS011;6597;52.218;9.882;2023-08-06T12:16:41;4.78;;;1.90;;
13061;SDS011;6597;52.218;9.882;2023-08-06T12:19:08;9.23;;;2.05;;
13061;SDS011;6597;52.218;9.882;2023-08-06T12:21:34;12.05;;;2.45;;
13061;SDS011;6597;52.218;9.882;2023-08-06T12:24:01;15.55;;;3.40;;
13061;SDS011;6597;52.218;9.882;2023-08-06T12:26:29;10.77;;;2.20;;
13061;SDS011;6597;52.218;9.882;2023-08-06T12:28:55;15.52;;;2.30;;
13061;SDS011;6597;52.218;9.882;2023-08-06T12:31:22;6.18;;;2.10;;
13061;SDS011;6597;52.218;9.882;2023-08-06T12:33:49;10.25;;;2.50;;
13061;SDS011;6597;52.218;9.882;2023-08-06T12:36:15;8.85;;;2.20;;
13061;SDS011;6597;52.218;9.882;2023-08-06T12:38:42;12.20;;;2.63;;
13061;SDS011;6597;52.218;9.882;2023-08-06T12:41:08;6.97;;;1.90;;
13061;SDS011;6597;52.218;9.882;2023-08-06T12:43:36;8.70;;;2.15;;
13061;SDS011;6597;52.218;9.882;2023-08-06T12:46:03;9.70;;;2.05;;
13061;SDS011;6597;52.218;9.882;2023-08-06T12:48:29;8.93;;;2.22;;
13061;SDS011;6597;52.218;9.882;2023-08-06T12:50:56;8.75;;;2.20;;
13061;SDS011;6597;52.218;9.882;2023-08-06T12:53:22;10.18;;;2.47;;
13061;SDS011;6597;52.218;9.882;2023-08-06T12:55:49;9.13;;;2.28;;
13061;SDS011;6597;52.218;9.882;2023-08-06T12:58:15;6.35;;;2.10;;
13061;SDS011;6597;52.218;9.882;2023-08-06T13:00:43;10.40;;;2.75;;
13061;SDS011;6597;52.218;9.882;2023-08-06T13:03:10;2.80;;;1.73;;
13061;SDS011;6597;52.218;9.882;2023-08-06T13:05:36;10.15;;;2.30;;
13061;SDS011;6597;52.218;9.882;2023-08-06T13:08:03;11.90;;;2.30;;
13061;SDS011;6597;52.218;9.882;2023-08-06T13:10:30;8.57;;;2.42;;
13061;SDS011;6597;52.218;9.882;2023-08-06T13:12:57;10.18;;;2.63;;
13061;SDS011;6597;52.218;9.882;2023-08-06T13:15:23;13.18;;;2.55;;
13061;SDS011;6597;52.218;9.882;2023-08-06T13:17:51;10.20;;;2.33;;
13061;SDS011;6597;52.218;9.882;2023-08-06T13:20:18;12.20;;;2.65;;
13061;SDS011;6597;52.218;9.882;2023-08-06T13:22:44;11.63;;;2.50;;
13061;SDS011;6597;52.218;9.882;2023-08-06T13:25:11;14.10;;;3.00;;
13061;SDS011;6597;52.218;9.882;2023-08-06T13:27:39;22.38;;;4.00;;
13061;SDS011;6597;52.218;9.882;2023-08-06T13:30:06;10.25;;;2.35;;
13061;SDS011;6597;52.218;9.882;2023-08-06T13:32:34;15.10;;;3.20;;
13061;SDS011;6597;52.218;9.882;2023-08-06T13:35:03;16.08;;;3.22;;
13061;SDS011;6597;52.218;9.882;2023-08-06T13:37:30;19.05;;;3.63;;
13061;SDS011;6597;52.218;9.882;2023-08-06T13:39:57;15.57;;;2.75;;
13061;SDS011;6597;52.218;9.882;2023-08-06T13:42:23;15.32;;;3.20;;
13061;SDS011;6597;52.218;9.882;2023-08-06T13:44:50;15.27;;;3.20;;
13061;SDS011;6597;52.218;9.882;2023-08-06T13:47:16;11.60;;;2.40;;
13061;SDS011;6597;52.218;9.882;2023-08-06T13:49:43;18.92;;;3.20;;
13061;SDS011;6597;52.218;9.882;2023-08-06T13:52:11;16.70;;;3.13;;
13061;SDS011;6597;52.218;9.882;2023-08-06T13:54:38;15.90;;;3.08;;
13061;SDS011;6597;52.218;9.882;2023-08-06T13:57:04;8.25;;;2.40;;
13061;SDS011;6597;52.218;9.882;2023-08-06T13:59:31;12.98;;;2.50;;
13061;SDS011;6597;52.218;9.882;2023-08-06T14:01:57;12.25;;;2.65;;
13061;SDS011;6597;52.218;9.882;2023-08-06T14:04:25;16.65;;;2.97;;
13061;SDS011;6597;52.218;9.882;2023-08-06T14:06:51;15.90;;;3.08;;
13061;SDS011;6597;52.218;9.882;2023-08-06T14:09:19;14.65;;;2.70;;
13061;SDS011;6597;52.218;9.882;2023-08-06T14:11:46;16.75;;;2.80;;
13061;SDS011;6597;52.218;9.882;2023-08-06T14:14:12;28.10;;;4.40;;
13061;SDS011;6597;52.218;9.882;2023-08-06T14:16:39;15.15;;;2.83;;
13061;SDS011;6597;52.218;9.882;2023-08-06T14:19:06;14.98;;;2.95;;
13061;SDS011;6597;52.218;9.882;2023-08-06T14:21:32;11.40;;;2.58;;
13061;SDS011;6597;52.218;9.882;2023-08-06T14:23:59;24.58;;;3.42;;
13061;SDS011;6597;52.218;9.882;2023-08-06T14:26:27;19.27;;;2.80;;
13061;SDS011;6597;52.218;9.882;2023-08-06T14:28:53;17.45;;;3.28;;
13061;SDS011;6597;52.218;9.882;2023-08-06T14:31:20;13.50;;;2.63;;
13061;SDS011;6597;52.218;9.882;2023-08-06T14:33:46;15.80;;;2.90;;
13061;SDS011;6597;52.218;9.882;2023-08-06T14:36:13;25.75;;;3.75;;
13061;SDS011;6597;52.218;9.882;2023-08-06T14:38:39;17.27;;;2.72;;
13061;SDS011;6597;52.218;9.882;2023-08-06T14:41:06;11.60;;;2.40;;
13061;SDS011;6597;52.218;9.882;2023-08-06T14:43:34;9.85;;;2.65;;
13061;SDS011;6597;52.218;9.882;2023-08-06T14:46:00;16.65;;;3.08;;
13061;SDS011;6597;52.218;9.882;2023-08-06T14:48:27;14.30;;;2.90;;
13061;SDS011;6597;52.218;9.882;2023-08-06T14:50:53;13.32;;;2.65;;
13061;SDS011;6597;52.218;9.882;2023-08-06T14:53:20;7.40;;;2.08;;
13061;SDS011;6597;52.218;9.882;2023-08-06T14:55:46;16.95;;;2.63;;
13061;SDS011;6597;52.218;9.882;2023-08-06T14:58:13;16.65;;;2.80;;